Nearby METAR Reports

 

RPLL - Ninoy Aquino Int, Philippines
Distance from station: 0 19km
Updated: 04/23/2018 7:00pm
Few Clouds
Few Clouds
 Wind from ESE
Wind: ESE 19 km/h
Temperature: 31°C
Heat Index: 37°C
Dew Point: 24°C
Humidity: 66%
Barometer: 1008 hPa
Clouds: Few Clouds
Visibility: 10 km
Cloud details: Few Clouds 701 m
2018/04/23 11:00 RPLL 231100Z 11010KT 9999 FEW023 31/24 Q1008 NOSIG RMK A2977
RPLB - Olongapo/Subic, Philippines
Distance from station: WNW 93km
Updated: 04/23/2018 7:00pm
Few Clouds
Few Clouds
 Wind from N
Wind: N 9 km/h
Temperature: 32°C
Heat Index: 37°C
Dew Point: 23°C
Humidity: 59%
Barometer: 1006 hPa
Clouds: Few Clouds
Visibility: 10 km
Cloud details: Few Clouds 610 m
2018/04/23 11:00 RPLB 231100Z 35005KT 9999 FEW020 32/23 Q1006 NOSIG RMK A2971
 
RPLC - Angeles/Pampanga, Philippines
Distance from station: NNW 101km
Updated: 04/23/2018 7:00pm
Mostly cloudy
Mostly cloudy
 Wind from S
Wind: S 19 km/h
Temperature: 31°C
Heat Index: 35°C
Dew Point: 22°C
Humidity: 59%
Barometer: 1009 hPa
Clouds: Mostly cloudy
Visibility: 10 km
Cloud details: Few Clouds 610 m
Mostly cloudy 9144 m
2018/04/23 11:00 RPLC 231100Z 18010KT 9999 FEW020 BKN300 31/22 Q1009 NOSIG RMK A2980
RPLI - Laoag Intl(Ph-Ar, Philippines
Distance from station: N 427km
Updated: 04/23/2018 7:00pm
Few Clouds
Few Clouds
 Wind from N
Wind: N 7 km/h
Temperature: 29°C
Heat Index: 34°C
Dew Point: 25°C
Humidity: 79%
Barometer: 1007 hPa
Clouds: Few Clouds
Visibility: 10 km
Cloud details: Few Clouds 579 m
2018/04/23 11:00 RPLI 231100Z 36004KT 9999 FEW019 29/25 Q1007 NOSIG RMK A2974
 
RPVM - Mactan-Cebu, Philippines
Distance from station: SE 553km
Updated: 04/23/2018 7:00pm
Few Clouds
Few Clouds
 Wind from NE
Wind: NE 13 km/h
Temperature: 30°C
Heat Index: 34°C
Dew Point: 23°C
Humidity: 66%
Barometer: 1008 hPa
Clouds: Few Clouds
Visibility: 10 km
Cloud details: Few Clouds 610 m
2018/04/23 11:00 RPVM 231100Z 05007KT 9999 FEW020 30/23 Q1008 NOSIG RK A2977
RPVP - Puerto Princesa, Philippines
Distance from station: SE 553km
Updated: 04/23/2018 7:00pm
Partly cloudy
Partly cloudy
 Wind from E
Wind: E 7 km/h
Temperature: 30°C
Heat Index: 36°C
Dew Point: 25°C
Humidity: 75%
Barometer: 1008 hPa
Clouds: Partly cloudy
Visibility: 10 km
Cloud details: Partly cloudy 579 m
2018/04/23 11:00 RPVP 231100Z 09004KT 9999 SCT019 30/25 Q1008 RMK A2977
 
RPMD - Davao City, Philippines
Distance from station: SE 553km
Updated: 04/23/2018 7:00pm
Light rain, Showers, Overcast
Light rain, Showers, Overcast
 Wind from varies
Wind: varies 4 km/h
Temperature: 28°C
Heat Index: 32°C
Dew Point: 25°C
Humidity: 84%
Barometer: 1008 hPa
Summary: Light rain, Showers
Clouds: Overcast
Visibility: 9 km
Cloud details: Few Clouds 457 m
Mostly cloudy 2743 m
Overcast 8839 m
2018/04/23 11:00 RPMD 231100Z VRB02KT 9000 -SHRA FEW015CB BKN090 OVC290 28/25 Q1008 RMK A2977 OCCNL LTG N
RPMR - General Santos City, Philippines
Distance from station: SE 553km
Updated: 04/23/2018 5:00pm
NOT Current
Few Clouds
Few Clouds
 Wind from S
Wind: S 4 km/h
Temperature: 33°C
Heat Index: 39°C
Dew Point: 24°C
Humidity: 59%
Barometer: 1007 hPa
Clouds: Few Clouds
Visibility: 10 km
Cloud details: Few Clouds 549 m
2018/04/23 09:00 RPMR 230900Z 17002KT 9999 FEW018CB 33/24 Q1007 NOSIG RMK A2974 CB NE SE W
 
RPMZ - Zamboanga, Philippines
Distance from station: NE 14km
Updated: 04/23/2018 6:00pm
Few Clouds
Few Clouds
 Wind from WNW
Wind: WNW 7 km/h
Temperature: 29°C
Heat Index: 34°C
Dew Point: 25°C
Humidity: 79%
Barometer: 1007 hPa
Clouds: Few Clouds
Visibility: 10 km
Cloud details: Few Clouds 518 m
Few Clouds 9144 m
2018/04/23 10:00 RPMZ 231000Z 29004KT 9999 FEW017 FEW300 29/25 Q1007 RMK A2974
www.000webhost.com